Time;durP1;ratioP1;P1;durP2;ratioP2;P2;SDS_P1;SDS_P2;PMS_P1;PMS_P2;Temp;Humidity;BMP_temperature;BMP_pressure;BME280_temperature;BME280_humidity;BME280_pressure;Samples;Min_cycle;Max_cycle;Signal;HPM_P1;HPM_P2
2021/12/29 00:01:02;;;;;;;26.80;13.27;;;;;;;7.72;100.00;99298.81;6179711;23;20327;-86
2021/12/29 00:03:27;;;;;;;25.67;11.88;;;;;;;7.73;100.00;99305.78;6180080;23;20051;-86
2021/12/29 00:05:53;;;;;;;25.85;13.20;;;;;;;7.72;100.00;99301.47;6156536;23;20103;-86
2021/12/29 00:08:18;;;;;;;26.45;13.75;;;;;;;7.72;100.00;99296.13;6204977;23;20017;-86
2021/12/29 00:10:46;;;;;;;22.63;11.02;;;;;;;7.73;100.00;99295.13;6179813;23;20062;-85
2021/12/29 00:13:13;;;;;;;24.17;11.05;;;;;;;7.72;100.00;99298.81;6180581;23;20096;-86
2021/12/29 00:15:38;;;;;;;25.10;11.52;;;;;;;7.71;100.00;99305.16;6182413;23;20013;-87
2021/12/29 00:18:04;;;;;;;24.13;11.50;;;;;;;7.71;100.00;99306.97;6207923;23;20023;-86
2021/12/29 00:20:31;;;;;;;27.85;12.80;;;;;;;7.70;100.00;99316.84;6182884;23;20044;-86
2021/12/29 00:23:07;;;;;;;22.77;10.05;;;;;;;7.71;100.00;99304.31;6181681;23;20084;-86
2021/12/29 00:25:33;;;;;;;23.35;10.95;;;;;;;7.71;100.00;99313.19;6182544;23;20165;-87
2021/12/29 00:27:59;;;;;;;19.38;9.18;;;;;;;7.72;100.00;99319.34;6182124;23;20040;-86
2021/12/29 00:30:25;;;;;;;20.23;10.40;;;;;;;7.71;100.00;99317.66;6179570;23;20487;-86
2021/12/29 00:32:51;;;;;;;19.05;9.25;;;;;;;7.71;100.00;99329.19;6179289;23;20028;-85
2021/12/29 00:35:17;;;;;;;20.35;9.63;;;;;;;7.72;100.00;99333.50;6209700;23;20016;-86
2021/12/29 00:37:43;;;;;;;19.52;10.20;;;;;;;7.72;100.00;99330.84;6180186;23;20016;-87
2021/12/29 00:40:11;;;;;;;23.98;10.15;;;;;;;7.71;100.00;99329.19;6181396;23;29926;-86
2021/12/29 00:42:38;;;;;;;23.17;11.20;;;;;;;7.71;100.00;99341.69;6182764;23;20028;-86
2021/12/29 00:45:07;;;;;;;21.52;10.40;;;;;;;7.72;100.00;99340.72;6180625;23;20070;-85
2021/12/29 00:47:34;;;;;;;22.00;10.23;;;;;;;7.71;100.00;99341.69;6181646;23;20494;-86
2021/12/29 00:50:04;;;;;;;24.73;13.95;;;;;;;7.71;100.00;99360.38;6182237;23;20021;-85
2021/12/29 00:52:29;;;;;;;24.75;11.57;;;;;;;7.72;100.00;99370.06;6182442;23;20444;-85
2021/12/29 00:54:56;;;;;;;24.58;11.45;;;;;;;7.72;100.00;99380.75;6156636;23;20019;-86
2021/12/29 00:57:23;;;;;;;25.17;12.75;;;;;;;7.71;100.00;99377.25;6209421;23;20455;-86
2021/12/29 00:59:48;;;;;;;25.48;12.73;;;;;;;7.71;100.00;99390.63;6208681;23;20025;-85
2021/12/29 01:02:14;;;;;;;25.52;12.48;;;;;;;7.71;100.00;99400.44;6205077;23;20070;-86
2021/12/29 01:04:39;;;;;;;29.10;13.63;;;;;;;7.72;100.00;99415.47;6182625;23;20066;-86
2021/12/29 01:07:05;;;;;;;26.05;13.75;;;;;;;7.73;100.00;99417.13;6180149;23;20115;-86
2021/12/29 01:09:30;;;;;;;33.42;14.98;;;;;;;7.73;100.00;99425.13;6206974;23;20090;-85
2021/12/29 01:11:57;;;;;;;31.52;16.98;;;;;;;7.73;100.00;99439.31;6181684;23;20294;-86
2021/12/29 01:14:25;;;;;;;32.45;14.45;;;;;;;7.73;100.00;99436.63;6180780;23;20020;-86
2021/12/29 01:16:51;;;;;;;29.98;13.60;;;;;;;7.73;100.00;99447.31;6159497;23;20020;-86
2021/12/29 01:19:19;;;;;;;30.77;15.15;;;;;;;7.73;100.00;99446.50;6158377;23;20063;-86
2021/12/29 01:21:49;;;;;;;26.73;12.83;;;;;;;7.73;100.00;99466.00;6184072;23;20019;-86
2021/12/29 01:24:16;;;;;;;29.50;13.40;;;;;;;7.73;100.00;99468.69;6183305;23;20301;-86
2021/12/29 01:26:43;;;;;;;27.10;12.95;;;;;;;7.73;100.00;99471.34;6210645;23;20367;-86
2021/12/29 01:29:10;;;;;;;28.33;14.80;;;;;;;7.73;100.00;99481.22;6183300;23;20008;-85
2021/12/29 01:31:35;;;;;;;26.85;14.65;;;;;;;7.73;100.00;99487.38;6211229;23;20016;-86
2021/12/29 01:34:04;;;;;;;28.52;12.95;;;;;;;7.75;100.00;99495.22;6207962;23;20031;-85
2021/12/29 01:36:33;;;;;;;25.98;13.60;;;;;;;7.74;100.00;99506.91;6210429;23;20032;-85
2021/12/29 01:38:59;;;;;;;;;;;;;;;7.74;100.00;99512.22;6158226;23;20018;-86
2021/12/29 01:41:25;;;;;;;26.05;11.93;;;;;;;7.67;100.00;99520.13;6183779;23;19950;-86
2021/12/29 01:43:50;;;;;;;25.23;12.23;;;;;;;7.69;100.00;99524.28;6159559;23;20016;-86
2021/12/29 01:46:16;;;;;;;26.27;12.35;;;;;;;7.71;100.00;99521.47;6156680;23;20020;-86
2021/12/29 01:48:41;;;;;;;28.55;14.80;;;;;;;7.71;100.00;99536.63;6184356;23;20055;-86
2021/12/29 01:51:07;;;;;;;26.67;13.77;;;;;;;7.72;100.00;99552.47;6208473;23;20016;-86
2021/12/29 01:53:34;;;;;;;26.13;11.63;;;;;;;7.72;100.00;99552.47;6209041;23;20083;-86
2021/12/29 01:56:00;;;;;;;25.70;11.68;;;;;;;7.73;100.00;99559.47;6183356;23;20043;-86
2021/12/29 01:58:26;;;;;;;26.65;12.50;;;;;;;7.73;100.00;99551.47;6210784;23;20013;-86
2021/12/29 02:00:53;;;;;;;24.27;12.50;;;;;;;7.73;100.00;99554.13;6184098;23;20020;-86
2021/12/29 02:03:19;;;;;;;23.45;10.90;;;;;;;7.75;100.00;99559.31;6208029;23;20051;-87
2021/12/29 02:05:45;;;;;;;22.05;11.65;;;;;;;7.75;100.00;99564.66;6208527;23;20067;-86
2021/12/29 02:08:11;;;;;;;24.70;10.95;;;;;;;7.77;100.00;99562.63;6209950;23;20355;-86
2021/12/29 02:10:44;;;;;;;23.42;9.15;;;;;;;7.76;100.00;99572.47;6183147;23;20070;-85
2021/12/29 02:13:11;;;;;;;20.55;8.75;;;;;;;7.76;100.00;99572.47;6183064;23;20535;-86
2021/12/29 02:15:36;;;;;;;20.50;9.07;;;;;;;7.77;100.00;99562.63;6208757;23;20046;-86
2021/12/29 02:18:03;;;;;;;20.55;9.95;;;;;;;7.76;100.00;99577.81;6182849;23;20361;-86
2021/12/29 02:20:28;;;;;;;22.15;12.38;;;;;;;7.77;100.00;99560.81;6157722;23;20031;-86
2021/12/29 02:23:12;;;;;;;22.02;10.35;;;;;;;7.76;100.00;99569.81;6182782;23;20044;-87
2021/12/29 02:25:49;;;;;;;27.35;13.18;;;;;;;7.76;100.00;99577.81;6210194;23;20086;-85
2021/12/29 02:28:24;;;;;;;24.30;12.20;;;;;;;7.75;100.00;99578.84;6182914;23;20020;-86
2021/12/29 02:30:50;;;;;;;26.42;10.30;;;;;;;7.74;100.00;99585.19;6210160;23;20012;-85
2021/12/29 02:33:16;;;;;;;20.02;10.07;;;;;;;7.74;100.00;99587.88;6182967;23;20036;-86
2021/12/29 02:35:43;;;;;;;23.20;11.65;;;;;;;7.75;100.00;99591.34;6183717;23;20017;-86
2021/12/29 02:38:27;;;;;;;22.25;11.00;;;;;;;7.74;100.00;99590.53;6157503;23;20083;-85
2021/12/29 02:40:59;;;;;;;25.30;14.30;;;;;;;7.72;100.00;99611.22;6209452;23;20030;-86
2021/12/29 02:43:25;;;;;;;25.05;13.00;;;;;;;7.73;100.00;99620.06;6182188;23;20062;-87
2021/12/29 02:45:58;;;;;;;27.40;13.32;;;;;;;7.71;100.00;99616.72;6183581;23;20115;-86
2021/12/29 02:48:29;;;;;;;26.05;14.45;;;;;;;7.71;100.00;99592.69;6210814;23;20012;-86
2021/12/29 02:50:56;;;;;;;27.30;16.83;;;;;;;7.67;100.00;99634.94;6182413;23;20345;-86
2021/12/29 02:53:24;;;;;;;28.55;16.95;;;;;;;7.67;100.00;99634.94;6183932;23;20466;-86
2021/12/29 02:55:52;;;;;;;26.33;18.90;;;;;;;7.62;100.00;99635.47;6208915;23;20043;-86
2021/12/29 02:58:17;;;;;;;27.73;15.73;;;;;;;7.60;100.00;99637.50;6157232;23;20021;-86
2021/12/29 03:00:43;;;;;;;29.65;18.67;;;;;;;7.60;100.00;99655.34;6208502;23;20687;-85
2021/12/29 03:03:16;;;;;;;32.20;21.30;;;;;;;7.57;100.00;99651.19;6182611;23;20024;-86
2021/12/29 03:05:42;;;;;;;36.40;20.42;;;;;;;7.57;100.00;99669.88;6183358;23;20020;-86
2021/12/29 03:08:07;;;;;;;35.25;23.05;;;;;;;7.57;100.00;99674.38;6182472;23;20019;-86
2021/12/29 03:10:33;;;;;;;36.50;22.25;;;;;;;7.55;100.00;99671.03;6208090;23;20012;-86
2021/12/29 03:12:58;;;;;;;35.42;23.08;;;;;;;7.53;100.00;99663.19;6183259;23;20031;-85
2021/12/29 03:15:24;;;;;;;32.40;20.83;;;;;;;7.52;100.00;99669.56;6184130;23;20470;-85
2021/12/29 03:17:49;;;;;;;28.35;20.35;;;;;;;7.52;100.00;99672.22;6184042;23;20047;-85
2021/12/29 03:20:15;;;;;;;32.53;19.90;;;;;;;7.51;100.00;99675.91;6158178;23;20024;-85
2021/12/29 03:22:40;;;;;;;25.58;14.07;;;;;;;7.50;100.00;99674.22;6184451;23;20402;-85
2021/12/29 03:25:06;;;;;;;30.30;18.77;;;;;;;7.50;100.00;99681.41;6183828;23;20027;-86
2021/12/29 03:27:32;;;;;;;26.48;14.23;;;;;;;7.50;100.00;99679.56;6183495;23;20047;-85
2021/12/29 03:29:57;;;;;;;27.67;17.13;;;;;;;7.50;100.00;99687.56;6182701;23;20028;-86
2021/12/29 03:32:37;;;;;;;27.05;17.80;;;;;;;7.49;100.00;99680.56;6180809;23;20020;-86
2021/12/29 03:35:03;;;;;;;26.20;15.27;;;;;;;7.49;100.00;99677.91;6180440;23;20074;-85
2021/12/29 03:37:29;;;;;;;25.25;15.07;;;;;;;7.47;100.00;99691.41;6209212;23;20554;-86
2021/12/29 03:39:54;;;;;;;24.55;15.05;;;;;;;7.47;100.00;99701.25;6209939;23;20036;-86
2021/12/29 03:42:20;;;;;;;24.17;15.23;;;;;;;7.47;100.00;99698.59;6158506;23;20066;-86
2021/12/29 03:44:45;;;;;;;25.65;15.40;;;;;;;7.47;100.00;99704.75;6210629;23;20026;-86
2021/12/29 03:47:11;;;;;;;22.10;13.45;;;;;;;7.46;100.00;99715.63;6183134;23;20016;-85
2021/12/29 03:49:36;;;;;;;20.40;10.80;;;;;;;7.45;100.00;99709.44;6186070;23;20063;-86
2021/12/29 03:52:03;;;;;;;20.70;11.85;;;;;;;7.45;100.00;99716.59;6184890;23;20021;-85
2021/12/29 03:54:28;;;;;;;21.35;12.63;;;;;;;7.45;100.00;99706.78;6186572;23;20384;-85
2021/12/29 03:56:53;;;;;;;21.30;12.57;;;;;;;7.45;100.00;99717.47;6161326;23;20021;-86
2021/12/29 03:59:19;;;;;;;21.02;11.15;;;;;;;7.44;100.00;99723.78;6185358;23;20099;-86
2021/12/29 04:01:46;;;;;;;22.00;13.15;;;;;;;7.46;100.00;99740.47;6186171;23;20008;-86
2021/12/29 04:04:12;;;;;;;17.33;10.80;;;;;;;7.47;100.00;99739.47;6185627;23;20017;-86
2021/12/29 04:06:37;;;;;;;21.70;13.10;;;;;;;7.47;100.00;99751.97;6212732;23;20470;-86
2021/12/29 04:09:04;;;;;;;18.92;9.25;;;;;;;7.46;100.00;99767.16;6210324;23;20051;-86
2021/12/29 04:11:30;;;;;;;16.88;10.48;;;;;;;7.47;100.00;99771.50;6185788;23;20460;-86
2021/12/29 04:13:55;;;;;;;17.40;12.43;;;;;;;7.49;100.00;99771.34;6185013;23;20108;-86
2021/12/29 04:16:21;;;;;;;17.67;11.20;;;;;;;7.49;100.00;99767.84;6186393;23;20024;-86
2021/12/29 04:19:07;;;;;;;17.40;10.60;;;;;;;7.47;100.00;99779.50;6186404;23;20016;-86
2021/12/29 04:21:34;;;;;;;21.77;11.57;;;;;;;7.48;100.00;99777.69;6184324;23;20514;-86
2021/12/29 04:23:59;;;;;;;19.40;11.50;;;;;;;7.46;100.00;99788.53;6159906;23;20016;-86
2021/12/29 04:26:25;;;;;;;20.63;11.88;;;;;;;7.45;100.00;99786.88;6161492;23;20036;-86
2021/12/29 04:28:50;;;;;;;20.80;11.52;;;;;;;7.44;100.00;99795.84;6161280;23;20024;-85
2021/12/29 04:31:16;;;;;;;19.33;11.20;;;;;;;7.44;100.00;99798.53;6160088;23;20470;-85
2021/12/29 04:33:42;;;;;;;22.50;12.15;;;;;;;7.45;100.00;99797.53;6211066;23;20028;-86
2021/12/29 04:36:08;;;;;;;25.40;13.68;;;;;;;7.42;100.00;99799.69;6209586;23;20016;-86
2021/12/29 04:38:34;;;;;;;22.08;10.95;;;;;;;7.41;100.00;99798.03;6186219;23;20032;-85
2021/12/29 04:41:00;;;;;;;23.17;13.20;;;;;;;7.41;100.00;99806.03;6184449;23;20020;-85
2021/12/29 04:43:26;;;;;;;20.70;10.50;;;;;;;7.40;100.00;99786.53;6185770;23;20043;-85
2021/12/29 04:45:53;;;;;;;24.30;14.30;;;;;;;7.40;100.00;99799.88;6212507;23;20359;-86
2021/12/29 04:48:19;;;;;;;29.80;13.23;;;;;;;7.40;100.00;99805.22;6184966;23;20029;-86
2021/12/29 04:50:52;;;;;;;29.35;14.93;;;;;;;7.39;100.00;99811.56;6211044;23;20390;-86
2021/12/29 04:53:20;;;;;;;24.02;12.25;;;;;;;7.37;100.00;99808.22;6161259;23;20099;-86
2021/12/29 04:55:49;;;;;;;24.17;12.88;;;;;;;7.39;100.00;99808.91;6210766;23;20044;-85
2021/12/29 04:58:14;;;;;;;;;;;;;;;7.39;100.00;99819.56;6185220;23;20024;-86
2021/12/29 05:00:40;;;;;;;28.70;15.27;;;;;;;7.33;100.00;99828.22;6184865;23;19977;-84
2021/12/29 05:03:05;;;;;;;30.63;13.23;;;;;;;7.34;100.00;99821.06;6211182;23;20012;-86
2021/12/29 05:10:41;;;;;;;28.77;15.27;;;;;;;7.37;100.00;99845.59;6211097;23;20359;-86
2021/12/29 05:13:07;;;;;;;27.35;13.45;;;;;;;7.36;100.00;99843.91;6209802;23;20037;-85
2021/12/29 05:15:33;;;;;;;29.73;14.30;;;;;;;7.37;100.00;99858.94;6185430;23;20021;-86
2021/12/29 05:17:59;;;;;;;30.00;13.70;;;;;;;7.36;100.00;99859.09;6185340;23;20092;-86
2021/12/29 05:20:27;;;;;;;26.55;11.75;;;;;;;7.37;100.00;99864.28;6209121;23;20047;-86
2021/12/29 05:22:52;;;;;;;30.92;13.25;;;;;;;7.38;100.00;99860.59;6185540;23;20017;-86
2021/12/29 05:25:18;;;;;;;29.23;13.00;;;;;;;7.40;100.00;99866.59;6184837;23;20040;-85
2021/12/29 05:27:43;;;;;;;32.63;15.43;;;;;;;7.40;100.00;99877.28;6212088;23;20070;-85
2021/12/29 05:30:09;;;;;;;26.45;10.18;;;;;;;7.39;100.00;99875.63;6184384;23;20107;-85
2021/12/29 05:32:34;;;;;;;30.40;13.93;;;;;;;7.40;100.00;99881.78;6184560;23;20013;-85
2021/12/29 05:35:00;;;;;;;31.08;13.70;;;;;;;7.39;100.00;99888.97;6184258;23;20019;-85
2021/12/29 05:37:25;;;;;;;34.58;14.32;;;;;;;7.40;100.00;99890.63;6185232;23;20091;-85
2021/12/29 05:39:51;;;;;;;34.00;14.23;;;;;;;7.40;100.00;99887.13;6184963;23;20059;-85
2021/12/29 05:42:16;;;;;;;30.65;13.23;;;;;;;7.40;100.00;99882.63;6184557;23;20020;-85
2021/12/29 05:44:41;;;;;;;28.95;12.05;;;;;;;7.39;100.00;99891.63;6185628;23;20053;-85
2021/12/29 05:47:07;;;;;;;31.08;11.18;;;;;;;7.39;100.00;99891.63;6209262;23;20009;-86
2021/12/29 05:49:33;;;;;;;32.50;14.55;;;;;;;7.39;100.00;99902.31;6160640;23;20462;-86
2021/12/29 05:51:58;;;;;;;29.30;13.85;;;;;;;7.41;100.00;99905.63;6158509;23;20008;-85
2021/12/29 05:54:23;;;;;;;31.38;12.63;;;;;;;7.41;100.00;99910.16;6185013;23;20012;-86
2021/12/29 05:56:49;;;;;;;28.95;10.48;;;;;;;7.42;100.00;99907.31;6160389;23;20017;-86
2021/12/29 05:59:14;;;;;;;32.00;13.48;;;;;;;7.42;100.00;99911.81;6159295;23;20020;-86
2021/12/29 06:01:42;;;;;;;34.28;13.30;;;;;;;7.42;100.00;99919.81;6184428;23;20139;-86
2021/12/29 06:04:09;;;;;;;35.10;13.57;;;;;;;7.41;100.00;99915.47;6181482;23;20020;-86
2021/12/29 06:06:34;;;;;;;35.42;16.48;;;;;;;7.41;100.00;99928.81;6183463;23;20092;-85
2021/12/29 06:09:00;;;;;;;36.25;16.85;;;;;;;7.41;100.00;99927.00;6207342;23;20099;-86
2021/12/29 06:11:26;;;;;;;38.78;17.38;;;;;;;7.41;100.00;99924.31;6157923;23;20047;-86
2021/12/29 06:13:51;;;;;;;35.13;17.55;;;;;;;7.42;100.00;99923.34;6184361;23;20044;-85
2021/12/29 06:16:17;;;;;;;37.10;17.35;;;;;;;7.41;100.00;99929.66;6183610;23;20463;-86
2021/12/29 06:18:43;;;;;;;36.63;16.25;;;;;;;7.41;100.00;99918.97;6184777;23;20016;-85
2021/12/29 06:21:08;;;;;;;50.40;19.10;;;;;;;7.40;100.00;99925.34;6183816;23;20023;-85
2021/12/29 06:23:33;;;;;;;43.08;19.27;;;;;;;7.41;100.00;99943.00;6207135;23;20017;-86
2021/12/29 06:25:59;;;;;;;43.60;20.88;;;;;;;7.42;100.00;99947.38;6182547;23;20017;-85
2021/12/29 06:28:24;;;;;;;48.33;22.50;;;;;;;7.42;100.00;99938.50;6181438;23;20051;-87
2021/12/29 06:30:51;;;;;;;41.38;18.92;;;;;;;7.41;100.00;99940.34;6156023;23;20024;-85
2021/12/29 06:33:16;;;;;;;48.08;22.38;;;;;;;7.41;100.00;99950.19;6158476;23;20459;-85
2021/12/29 06:35:41;;;;;;;46.63;19.92;;;;;;;7.41;100.00;99953.69;6209316;23;20013;-86
2021/12/29 06:38:07;;;;;;;50.17;21.73;;;;;;;7.43;100.00;99961.53;6183590;23;20062;-86
2021/12/29 06:40:32;;;;;;;51.05;21.05;;;;;;;7.42;100.00;99952.69;6182161;23;20253;-85
2021/12/29 06:42:58;;;;;;;46.20;21.10;;;;;;;7.41;100.00;99950.19;6182156;23;20024;-86
2021/12/29 06:45:26;;;;;;;58.15;24.05;;;;;;;7.42;100.00;99950.03;6181083;23;20362;-87
2021/12/29 06:47:52;;;;;;;60.80;25.45;;;;;;;7.45;100.00;99954.19;6208420;23;20025;-85
2021/12/29 06:50:17;;;;;;;55.65;25.00;;;;;;;7.46;100.00;99951.34;6156462;23;20032;-85
2021/12/29 06:52:44;;;;;;;51.75;22.58;;;;;;;7.47;100.00;99955.69;6206515;23;20039;-85
2021/12/29 06:55:09;;;;;;;57.17;25.58;;;;;;;7.48;100.00;99964.56;6156115;23;20028;-85
2021/12/29 06:57:35;;;;;;;52.75;22.40;;;;;;;7.48;100.00;99964.56;6156561;23;20035;-85
2021/12/29 07:00:01;;;;;;;56.63;22.48;;;;;;;7.50;100.00;99972.38;6205899;23;20040;-85
2021/12/29 07:02:26;;;;;;;45.88;20.17;;;;;;;7.50;100.00;99973.22;6181887;23;20020;-85
2021/12/29 07:04:52;;;;;;;45.65;19.60;;;;;;;7.53;100.00;99980.06;6208530;23;20021;-85
2021/12/29 07:07:20;;;;;;;54.28;24.00;;;;;;;7.54;100.00;99987.06;6157023;23;20031;-85
2021/12/29 07:09:45;;;;;;;48.97;20.13;;;;;;;7.53;100.00;99980.91;6208152;23;20036;-85
2021/12/29 07:12:11;;;;;;;41.83;19.10;;;;;;;7.53;100.00;99977.41;6181923;23;20048;-84
2021/12/29 07:14:38;;;;;;;46.10;18.10;;;;;;;7.54;100.00;99979.91;6159162;23;20025;-84
2021/12/29 07:17:04;;;;;;;48.70;20.02;;;;;;;7.54;100.00;99984.41;6182822;23;20021;-84
2021/12/29 07:19:30;;;;;;;40.38;17.40;;;;;;;7.55;100.00;99991.44;6184447;23;20044;-85
2021/12/29 07:21:55;;;;;;;44.50;20.83;;;;;;;7.55;100.00;99986.09;6182016;23;20017;-85
2021/12/29 07:24:21;;;;;;;46.00;20.60;;;;;;;7.56;100.00;99995.75;6155917;23;20362;-84
2021/12/29 07:26:48;;;;;;;41.80;17.02;;;;;;;7.58;100.00;99996.44;6181895;23;20070;-84
2021/12/29 07:29:14;;;;;;;34.08;16.83;;;;;;;7.57;100.00;100013.47;6156814;23;20017;-86
2021/12/29 07:31:40;;;;;;;39.92;17.40;;;;;;;7.57;100.00;100010.78;6208056;23;20020;-85
2021/12/29 07:34:07;;;;;;;40.33;18.52;;;;;;;7.58;100.00;100017.78;6208503;23;20419;-85
2021/12/29 07:36:33;;;;;;;43.63;20.23;;;;;;;7.58;100.00;100015.97;6159316;23;20099;-84
2021/12/29 07:38:58;;;;;;;31.70;17.23;;;;;;;7.58;100.00;100012.47;6184234;23;20032;-85
2021/12/29 07:41:24;;;;;;;42.38;19.05;;;;;;;7.58;100.00;100033.81;6181638;23;20463;-85
2021/12/29 07:43:51;;;;;;;42.35;19.50;;;;;;;7.59;100.00;100024.78;6193765;23;20051;-85
2021/12/29 07:46:17;;;;;;;37.47;16.75;;;;;;;7.58;100.00;100037.31;6158569;23;20099;-85
2021/12/29 07:48:42;;;;;;;39.63;20.30;;;;;;;7.61;100.00;100038.81;6183655;23;20385;-85
2021/12/29 07:51:09;;;;;;;39.78;18.02;;;;;;;7.61;100.00;100041.50;6208043;23;20095;-86
2021/12/29 07:53:37;;;;;;;38.90;17.65;;;;;;;7.60;100.00;100038.00;6184067;23;20074;-86
2021/12/29 07:56:07;;;;;;;43.38;18.60;;;;;;;7.60;100.00;100035.31;6179282;23;20043;-85
2021/12/29 07:58:34;;;;;;;36.30;17.00;;;;;;;7.62;100.00;100048.50;6207584;23;20021;-85
2021/12/29 08:01:00;;;;;;;36.83;17.85;;;;;;;7.63;100.00;100039.50;6183120;23;20314;-85
2021/12/29 08:03:26;;;;;;;37.88;18.42;;;;;;;7.62;100.00;100041.34;6208578;23;20135;-86
2021/12/29 08:05:51;;;;;;;40.90;16.80;;;;;;;7.63;100.00;100051.03;6169652;23;20136;-86
2021/12/29 08:08:17;;;;;;;41.25;19.90;;;;;;;7.64;100.00;100049.19;6152603;23;20343;-86
2021/12/29 08:10:42;;;;;;;40.40;18.58;;;;;;;7.64;100.00;100060.69;6182499;23;20017;-86
2021/12/29 08:13:08;;;;;;;44.00;20.77;;;;;;;7.64;100.00;100059.84;6181301;23;20024;-87
2021/12/29 08:15:34;;;;;;;32.72;16.75;;;;;;;7.66;100.00;100061.38;6207161;23;20032;-88
2021/12/29 08:18:02;;;;;;;38.15;17.75;;;;;;;7.66;100.00;100058.69;6182640;23;20021;-88
2021/12/29 08:20:28;;;;;;;37.55;20.10;;;;;;;7.66;100.00;100064.03;6181269;23;20021;-88
2021/12/29 08:22:54;;;;;;;37.00;19.20;;;;;;;7.67;100.00;100070.22;6181843;23;20017;-88
2021/12/29 08:25:21;;;;;;;41.00;19.90;;;;;;;7.65;100.00;100073.06;6207017;23;20024;-87
2021/12/29 08:33:03;;;;;;;40.35;19.33;;;;;;;7.67;100.00;100064.88;6208885;23;20024;-87
2021/12/29 08:35:43;;;;;;;44.22;22.45;;;;;;;7.68;100.00;100072.75;6158182;23;20012;-87
2021/12/29 08:38:21;;;;;;;42.00;21.38;;;;;;;7.67;100.00;100064.88;6136075;23;20020;-88
2021/12/29 08:41:03;;;;;;;40.22;20.10;;;;;;;7.67;100.00;100060.38;6212199;23;20403;-88
2021/12/29 08:43:35;;;;;;;49.13;24.48;;;;;;;7.67;100.00;100071.03;6210011;23;20016;-89
2021/12/29 08:46:02;;;;;;;39.85;19.77;;;;;;;7.69;100.00;100073.56;6183512;23;20021;-89
2021/12/29 08:48:50;;;;;;;40.40;20.25;;;;;;;7.68;100.00;100069.22;6184503;23;20058;-89
2021/12/29 08:51:22;;;;;;;38.80;21.23;;;;;;;7.68;100.00;100074.53;6183425;23;20066;-90
2021/12/29 08:53:50;;;;;;;35.78;20.42;;;;;;;7.68;100.00;100063.88;6208305;23;20017;-90
2021/12/29 08:56:16;;;;;;;34.90;19.70;;;;;;;7.69;100.00;100073.56;6208558;23;20016;-88
2021/12/29 08:58:45;;;;;;;32.92;16.45;;;;;;;7.69;100.00;100070.91;6159490;23;20332;-88
2021/12/29 09:01:11;;;;;;;;;;;;;;;7.68;100.00;100056.72;6158271;23;20028;-89
2021/12/29 09:03:37;;;;;;;27.83;13.63;;;;;;;7.62;100.00;100052.03;6208829;23;19914;-90
2021/12/29 09:06:03;;;;;;;29.02;15.02;;;;;;;7.64;100.00;100060.69;6157406;23;20012;-87
2021/12/29 09:08:29;;;;;;;35.90;17.60;;;;;;;7.67;100.00;100064.88;6184430;23;20111;-88
2021/12/29 09:10:55;;;;;;;34.05;15.85;;;;;;;7.68;100.00;100077.22;6209187;23;20017;-88
2021/12/29 09:13:21;;;;;;;30.90;15.20;;;;;;;7.67;100.00;100070.22;6159538;23;20051;-88
2021/12/29 09:15:47;;;;;;;34.53;18.13;;;;;;;7.68;100.00;100071.88;6211280;23;20459;-88
2021/12/29 09:18:12;;;;;;;38.75;21.33;;;;;;;7.68;100.00;100085.22;6183313;23;20506;-89
2021/12/29 09:20:45;;;;;;;36.88;18.65;;;;;;;7.67;100.00;100088.91;6133968;23;20110;-88
2021/12/29 09:23:11;;;;;;;36.42;17.65;;;;;;;7.68;100.00;100093.25;6209027;23;20402;-89
2021/12/29 09:25:39;;;;;;;38.30;17.67;;;;;;;7.69;100.00;100094.94;6207580;23;20012;-88
2021/12/29 09:28:06;;;;;;;40.47;17.83;;;;;;;7.66;100.00;100096.09;6181778;23;20477;-88
2021/12/29 09:30:34;;;;;;;39.80;17.23;;;;;;;7.68;100.00;100101.25;6183765;23;20023;-89
2021/12/29 09:33:00;;;;;;;44.00;17.50;;;;;;;7.70;100.00;100099.25;6159320;23;20019;-89
2021/12/29 09:35:27;;;;;;;41.85;18.83;;;;;;;7.69;100.00;100111.78;6208003;23;20047;-89
2021/12/29 09:37:52;;;;;;;41.67;20.05;;;;;;;7.71;100.00;100103.63;6184071;23;20020;-87
2021/12/29 09:40:20;;;;;;;39.90;20.23;;;;;;;7.70;100.00;100101.94;6182859;23;20013;-90
2021/12/29 09:42:47;;;;;;;37.83;18.08;;;;;;;7.70;100.00;100107.28;6158497;23;20024;-88
2021/12/29 09:45:14;;;;;;;40.92;19.60;;;;;;;7.71;100.00;100100.97;6183068;23;20027;-88
2021/12/29 09:47:39;;;;;;;37.88;19.70;;;;;;;7.71;100.00;100102.75;6157780;23;20062;-88
2021/12/29 09:50:08;;;;;;;47.42;23.65;;;;;;;7.72;100.00;100105.28;6210634;23;20366;-88
2021/12/29 09:52:34;;;;;;;45.40;18.90;;;;;;;7.70;100.00;100093.91;6183005;23;20034;-89
2021/12/29 09:55:04;;;;;;;42.72;22.85;;;;;;;7.73;100.00;100098.09;6210272;23;20070;-88
2021/12/29 09:57:34;;;;;;;43.13;19.70;;;;;;;7.71;100.00;100084.94;6183925;23;20021;-88
2021/12/29 10:00:01;;;;;;;45.05;23.20;;;;;;;7.72;100.00;100099.94;6158324;23;20020;-87
2021/12/29 10:02:26;;;;;;;41.90;21.90;;;;;;;7.74;100.00;100118.47;6158709;23;20017;-89
2021/12/29 10:04:52;;;;;;;43.05;22.23;;;;;;;7.74;100.00;100113.97;6184597;23;20035;-89
2021/12/29 10:07:20;;;;;;;49.88;22.65;;;;;;;7.74;100.00;100113.13;6183481;23;20032;-88
2021/12/29 10:09:46;;;;;;;42.47;21.33;;;;;;;7.75;100.00;100114.81;6159452;23;20042;-87
2021/12/29 10:12:21;;;;;;;44.00;21.85;;;;;;;7.76;100.00;100106.63;6182258;23;20016;-87
2021/12/29 10:14:55;;;;;;;45.53;20.40;;;;;;;7.74;100.00;100105.97;6184636;23;20479;-88
2021/12/29 10:17:28;;;;;;;40.47;21.20;;;;;;;7.76;100.00;100119.16;6182719;23;20486;-88
2021/12/29 10:20:08;;;;;;;43.17;22.00;;;;;;;7.77;100.00;100116.31;6156427;23;20028;-87
2021/12/29 10:22:34;;;;;;;41.05;23.13;;;;;;;7.76;100.00;100119.97;6157099;23;20051;-87
2021/12/29 10:25:24;;;;;;;43.00;21.10;;;;;;;7.76;100.00;100122.66;6209685;23;20013;-87
2021/12/29 10:27:51;;;;;;;37.25;21.13;;;;;;;7.77;100.00;100126.16;6139709;23;20070;-87
2021/12/29 10:30:26;;;;;;;39.55;20.65;;;;;;;7.79;100.00;100122.31;6181321;23;20012;-87
2021/12/29 10:32:56;;;;;;;35.25;21.10;;;;;;;7.80;100.00;100124.00;6182854;23;20091;-87
2021/12/29 10:35:25;;;;;;;42.75;20.00;;;;;;;7.79;100.00;100111.63;6208580;23;20016;-86
2021/12/29 10:37:52;;;;;;;46.13;23.67;;;;;;;7.81;100.00;100115.00;6184031;23;20016;-86
2021/12/29 10:40:28;;;;;;;44.08;26.83;;;;;;;7.84;100.00;100119.19;6181342;23;20257;-87
2021/12/29 10:42:56;;;;;;;45.25;24.50;;;;;;;7.82;100.00;100122.00;6209241;23;20016;-87
2021/12/29 10:45:37;;;;;;;47.03;28.13;;;;;;;7.82;100.00;100122.00;6155022;23;21376;-88
2021/12/29 10:48:16;;;;;;;42.85;22.90;;;;;;;7.81;100.00;100131.00;6184890;23;20398;-87
2021/12/29 10:51:03;;;;;;;53.03;29.98;;;;;;;7.86;100.00;100126.03;6206367;23;20091;-87
2021/12/29 10:53:31;;;;;;;52.63;27.50;;;;;;;7.84;100.00;100117.34;6208905;23;20012;-87
2021/12/29 10:55:57;;;;;;;49.35;24.45;;;;;;;7.83;100.00;100107.66;6182643;23;20021;-86
2021/12/29 10:58:25;;;;;;;48.17;24.98;;;;;;;7.85;100.00;100123.50;6157360;23;20020;-86
2021/12/29 11:01:01;;;;;;;45.00;25.67;;;;;;;7.86;100.00;100123.34;6158422;23;20484;-87
2021/12/29 11:03:29;;;;;;;44.28;25.63;;;;;;;7.86;100.00;100128.69;6207309;23;20036;-89
2021/12/29 11:06:01;;;;;;;50.30;26.73;;;;;;;7.86;100.00;100133.22;6182694;23;20061;-86
2021/12/29 11:08:33;;;;;;;50.70;25.52;;;;;;;7.86;100.00;100123.34;6157490;23;20028;-88
2021/12/29 11:11:07;;;;;;;50.60;28.38;;;;;;;7.86;100.00;100123.34;6159288;23;20386;-86
2021/12/29 11:13:33;;;;;;;52.75;29.45;;;;;;;7.87;100.00;100121.53;6182508;23;20036;-87
2021/12/29 11:16:00;;;;;;;48.67;27.95;;;;;;;7.88;100.00;100126.72;6210033;23;20245;-87
2021/12/29 11:18:38;;;;;;;51.33;30.98;;;;;;;7.89;100.00;100112.34;6133144;23;20012;-87
2021/12/29 11:21:03;;;;;;;51.30;28.35;;;;;;;7.89;100.00;100122.19;6160596;23;20074;-88
2021/12/29 11:23:29;;;;;;;46.97;26.58;;;;;;;7.91;100.00;100117.50;6182293;23;20024;-87
2021/12/29 11:25:55;;;;;;;47.72;29.60;;;;;;;7.90;100.00;100116.69;6183543;23;20013;-87